Time;durP1;ratioP1;P1;durP2;ratioP2;P2;SDS_P1;SDS_P2;PMS_P1;PMS_P2;Temp;Humidity;BMP_temperature;BMP_pressure;BME280_temperature;BME280_humidity;BME280_pressure;Samples;Min_cycle;Max_cycle;Signal;HPM_P1;HPM_P2
2021/08/04 00:00:32;;;;;;;12.50;10.45;;;15.40;80.00;;;;;;5007533;28;20030;-72
2021/08/04 00:02:57;;;;;;;12.68;10.68;;;15.40;80.00;;;;;;4998477;28;20023;-72
2021/08/04 00:05:23;;;;;;;12.48;9.88;;;15.40;79.80;;;;;;5012738;28;20038;-73
2021/08/04 00:07:49;;;;;;;13.20;10.80;;;15.40;79.70;;;;;;5016860;28;20059;-73
2021/08/04 00:10:15;;;;;;;14.63;11.27;;;15.40;79.80;;;;;;5019483;28;20053;-72
2021/08/04 00:12:41;;;;;;;13.05;10.90;;;15.40;80.00;;;;;;5031139;28;20117;-75
2021/08/04 00:15:08;;;;;;;12.52;10.35;;;15.40;80.00;;;;;;5027038;28;20172;-72
2021/08/04 00:17:33;;;;;;;13.18;10.82;;;15.40;80.20;;;;;;5026346;28;20476;-73
2021/08/04 00:19:59;;;;;;;12.32;10.25;;;15.40;80.30;;;;;;5028605;28;20041;-71
2021/08/04 00:22:24;;;;;;;14.55;11.07;;;15.40;80.40;;;;;;5023166;28;20033;-71
2021/08/04 00:24:50;;;;;;;13.95;11.45;;;15.40;80.50;;;;;;5021785;28;20045;-72
2021/08/04 00:27:16;;;;;;;16.67;12.70;;;15.40;80.60;;;;;;5027614;28;20071;-71
2021/08/04 00:29:42;;;;;;;13.48;11.15;;;15.40;80.80;;;;;;5030974;28;20516;-71
2021/08/04 00:32:07;;;;;;;13.95;10.95;;;15.40;80.80;;;;;;5020283;28;20038;-73
2021/08/04 00:34:33;;;;;;;14.27;11.82;;;15.40;80.90;;;;;;5034594;28;20044;-72
2021/08/04 00:36:59;;;;;;;15.20;11.63;;;15.40;80.90;;;;;;5027121;28;20536;-73
2021/08/04 00:39:25;;;;;;;14.60;12.20;;;15.30;81.00;;;;;;5035440;28;20493;-77
2021/08/04 00:41:50;;;;;;;13.73;11.73;;;15.30;81.10;;;;;;5026313;28;20053;-72
2021/08/04 00:44:16;;;;;;;14.95;11.57;;;15.40;81.20;;;;;;5023979;28;20120;-72
2021/08/04 00:46:43;;;;;;;15.18;12.15;;;15.40;81.20;;;;;;5022600;28;20045;-72
2021/08/04 00:49:13;;;;;;;14.40;11.88;;;15.30;81.10;;;;;;5032020;28;20037;-74
2021/08/04 00:51:39;;;;;;;13.65;11.65;;;15.30;81.20;;;;;;5022775;28;20048;-71
2021/08/04 00:54:07;;;;;;;13.68;12.27;;;15.30;81.10;;;;;;5032665;28;20053;-72
2021/08/04 00:56:33;;;;;;;12.93;11.45;;;15.20;81.00;;;;;;5022580;28;20112;-72
2021/08/04 00:59:00;;;;;;;16.33;12.40;;;15.20;81.10;;;;;;5033795;28;20120;-71
2021/08/04 01:01:28;;;;;;;14.70;11.73;;;15.20;81.30;;;;;;5027860;28;20049;-72
2021/08/04 01:04:35;;;;;;;14.63;12.48;;;15.10;81.40;;;;;;5036696;28;20060;-72
2021/08/04 01:07:14;;;;;;;13.55;12.10;;;15.10;81.60;;;;;;5023884;28;20046;-71
2021/08/04 01:09:52;;;;;;;16.00;11.80;;;15.10;81.70;;;;;;5027702;28;20083;-75
2021/08/04 01:12:29;;;;;;;15.48;13.25;;;15.00;81.70;;;;;;5023775;28;20033;-72
2021/08/04 01:15:04;;;;;;;14.43;12.95;;;15.00;81.80;;;;;;5024573;28;20041;-76
2021/08/04 01:17:30;;;;;;;15.52;13.88;;;15.00;82.00;;;;;;5024466;28;20044;-72
2021/08/04 01:20:06;;;;;;;16.17;13.02;;;15.00;82.00;;;;;;5027298;28;20030;-72
2021/08/04 01:22:56;;;;;;;15.30;13.02;;;15.00;82.00;;;;;;5028343;28;20120;-72
2021/08/04 01:25:28;;;;;;;14.32;12.80;;;14.90;81.90;;;;;;5023659;28;20076;-72
2021/08/04 01:28:21;;;;;;;16.20;13.90;;;14.90;81.80;;;;;;5027924;28;20037;-73
2021/08/04 01:30:51;;;;;;;15.77;13.50;;;14.80;82.00;;;;;;5022212;28;20033;-74
2021/08/04 01:33:17;;;;;;;15.00;12.85;;;14.70;82.40;;;;;;5028857;28;20053;-72
2021/08/04 01:35:45;;;;;;;17.58;13.55;;;14.70;82.50;;;;;;5022991;28;20045;-73
2021/08/04 01:38:16;;;;;;;14.68;13.15;;;14.70;82.70;;;;;;5021985;28;20033;-73
2021/08/04 01:40:43;;;;;;;14.48;12.40;;;14.60;82.90;;;;;;5032735;28;20120;-73
2021/08/04 01:43:11;;;;;;;14.40;12.05;;;14.60;83.00;;;;;;5031508;28;20507;-73
2021/08/04 01:45:39;;;;;;;15.18;12.65;;;14.60;83.10;;;;;;5032186;28;20029;-72
2021/08/04 01:48:06;;;;;;;14.40;12.52;;;14.60;83.10;;;;;;5032519;28;20122;-77
2021/08/04 01:50:33;;;;;;;13.77;11.93;;;14.50;83.10;;;;;;5034985;28;20039;-73
2021/08/04 01:53:00;;;;;;;15.07;12.35;;;14.50;83.10;;;;;;5024548;28;20069;-72
2021/08/04 01:55:26;;;;;;;14.32;12.65;;;14.50;83.10;;;;;;5017085;28;20042;-72
2021/08/04 01:57:52;;;;;;;14.20;12.70;;;14.50;83.00;;;;;;5004421;28;20040;-72
2021/08/04 02:00:17;;;;;;;14.68;11.60;;;14.40;82.90;;;;;;5004183;28;20405;-76
2021/08/04 02:02:43;;;;;;;17.58;14.10;;;14.40;83.00;;;;;;5003309;28;20124;-72
2021/08/04 02:05:09;;;;;;;15.25;12.73;;;14.40;83.20;;;;;;5005489;28;20033;-72
2021/08/04 02:07:56;;;;;;;15.00;12.20;;;14.40;83.20;;;;;;4999896;28;20500;-75
2021/08/04 02:10:41;;;;;;;15.40;12.80;;;14.30;82.80;;;;;;5020744;28;20130;-74
2021/08/04 02:13:22;;;;;;;14.90;12.57;;;14.30;82.90;;;;;;5028849;28;20539;-72
2021/08/04 02:15:53;;;;;;;16.38;13.85;;;14.30;83.20;;;;;;5032472;28;20052;-74
2021/08/04 02:18:23;;;;;;;16.05;13.90;;;14.20;83.30;;;;;;5030998;28;20080;-72
2021/08/04 02:20:50;;;;;;;15.70;13.88;;;14.30;83.40;;;;;;5027482;28;20041;-73
2021/08/04 02:23:22;;;;;;;16.00;13.38;;;14.10;83.40;;;;;;5030291;28;20040;-74
2021/08/04 02:26:20;;;;;;;15.18;13.57;;;14.20;83.40;;;;;;5035393;28;20376;-72
2021/08/04 02:28:50;;;;;;;17.65;14.50;;;14.20;83.40;;;;;;5026853;28;20470;-76
2021/08/04 02:31:18;;;;;;;18.00;15.43;;;14.20;83.50;;;;;;4999638;28;20041;-72
2021/08/04 02:33:45;;;;;;;15.90;14.18;;;14.20;83.60;;;;;;5010008;28;20057;-72
2021/08/04 02:36:12;;;;;;;17.15;14.95;;;14.20;83.60;;;;;;5028007;28;20121;-72
2021/08/04 02:38:37;;;;;;;17.55;13.90;;;14.20;83.60;;;;;;5011244;28;20069;-73
2021/08/04 02:41:03;;;;;;;18.52;16.08;;;14.20;83.70;;;;;;5011762;28;20030;-72
2021/08/04 02:43:30;;;;;;;15.38;13.77;;;14.20;83.80;;;;;;5024647;28;20042;-72
2021/08/04 02:45:58;;;;;;;17.23;14.60;;;14.20;83.80;;;;;;5006471;28;20108;-72
2021/08/04 02:48:24;;;;;;;15.80;14.10;;;14.30;83.50;;;;;;5023809;28;20034;-72
2021/08/04 02:51:13;;;;;;;16.13;13.85;;;14.20;83.50;;;;;;5024840;28;20055;-73
2021/08/04 02:53:39;;;;;;;16.25;13.80;;;14.30;83.60;;;;;;5020655;28;20102;-73
2021/08/04 02:56:05;;;;;;;16.10;13.98;;;14.20;83.70;;;;;;5025831;28;20381;-75
2021/08/04 02:58:36;;;;;;;16.50;13.43;;;14.20;83.70;;;;;;5011238;28;20120;-72
2021/08/04 03:01:04;;;;;;;15.48;13.88;;;14.30;83.30;;;;;;5011594;28;20132;-73
2021/08/04 03:03:30;;;;;;;15.25;13.52;;;14.20;83.40;;;;;;5014639;28;20057;-73
2021/08/04 03:05:55;;;;;;;18.63;15.15;;;14.10;83.50;;;;;;5007129;28;20112;-72
2021/08/04 03:08:21;;;;;;;15.10;13.43;;;14.10;83.70;;;;;;5013965;28;20507;-77
2021/08/04 03:10:46;;;;;;;15.15;13.55;;;14.20;83.80;;;;;;5004676;28;20038;-77
2021/08/04 03:13:12;;;;;;;15.68;13.88;;;14.10;83.80;;;;;;5005563;28;20041;-73
2021/08/04 03:15:38;;;;;;;16.50;14.80;;;14.10;83.90;;;;;;5009536;28;20029;-72
2021/08/04 03:18:03;;;;;;;17.45;14.93;;;14.10;83.90;;;;;;5026225;28;20040;-73
2021/08/04 03:20:29;;;;;;;19.60;15.75;;;14.10;84.10;;;;;;5027014;28;20029;-74
2021/08/04 03:22:55;;;;;;;15.90;14.07;;;14.10;84.10;;;;;;5032330;28;20074;-77
2021/08/04 03:25:21;;;;;;;17.73;15.82;;;14.10;84.20;;;;;;5029763;28;20049;-72
2021/08/04 03:27:46;;;;;;;17.08;15.27;;;14.10;84.40;;;;;;5026040;28;20044;-74
2021/08/04 03:30:13;;;;;;;18.55;16.65;;;14.00;84.50;;;;;;5025093;28;20060;-73
2021/08/04 03:32:39;;;;;;;18.98;15.90;;;14.00;84.80;;;;;;5027754;28;20404;-73
2021/08/04 03:35:06;;;;;;;18.13;15.52;;;14.00;84.90;;;;;;5020665;28;20046;-73
2021/08/04 03:37:32;;;;;;;18.25;15.57;;;14.00;85.10;;;;;;5021580;28;20044;-73
2021/08/04 03:39:58;;;;;;;18.75;16.00;;;14.00;85.30;;;;;;5020240;28;20589;-75
2021/08/04 03:42:23;;;;;;;19.42;17.42;;;13.90;85.50;;;;;;5022424;28;20121;-73
2021/08/04 03:44:49;;;;;;;20.00;16.63;;;13.90;85.60;;;;;;5022470;28;20503;-73
2021/08/04 03:47:15;;;;;;;18.92;16.27;;;13.90;85.90;;;;;;5025144;28;20037;-73
2021/08/04 03:49:40;;;;;;;20.23;17.05;;;13.90;86.10;;;;;;5016906;28;20090;-73
2021/08/04 03:52:06;;;;;;;20.50;18.30;;;13.80;86.30;;;;;;5032369;28;20444;-73
2021/08/04 03:54:32;;;;;;;20.42;18.27;;;13.80;86.50;;;;;;5035648;28;20056;-72
2021/08/04 03:56:57;;;;;;;20.23;17.85;;;13.80;86.60;;;;;;5029450;28;20029;-72
2021/08/04 03:59:23;;;;;;;19.75;17.65;;;13.90;86.70;;;;;;5035868;28;20036;-72
2021/08/04 04:01:49;;;;;;;21.05;18.85;;;13.90;86.70;;;;;;5026207;28;20404;-76
2021/08/04 04:04:15;;;;;;;21.83;17.67;;;13.90;86.70;;;;;;5018960;28;20508;-72
2021/08/04 04:06:41;;;;;;;20.85;18.50;;;13.90;86.50;;;;;;5027961;28;20033;-78
2021/08/04 04:09:06;;;;;;;21.27;18.50;;;14.00;86.50;;;;;;5030268;28;20049;-73
2021/08/04 04:11:32;;;;;;;27.95;18.40;;;14.00;86.50;;;;;;5030241;28;20051;-73
2021/08/04 04:13:58;;;;;;;19.33;17.27;;;14.00;86.00;;;;;;5029710;28;20033;-73
2021/08/04 04:16:23;;;;;;;18.65;16.42;;;13.90;86.00;;;;;;5034045;28;20052;-72
2021/08/04 04:18:50;;;;;;;18.60;16.33;;;14.00;85.90;;;;;;5029382;28;20477;-77
2021/08/04 04:21:16;;;;;;;19.17;16.05;;;14.00;85.90;;;;;;5029279;28;20059;-73
2021/08/04 04:23:42;;;;;;;19.58;17.58;;;14.00;85.80;;;;;;5015469;28;20060;-72
2021/08/04 04:26:08;;;;;;;18.98;16.80;;;14.10;85.80;;;;;;5000028;28;20046;-73
2021/08/04 04:28:34;;;;;;;18.33;16.25;;;14.10;85.70;;;;;;5002302;28;20034;-76
2021/08/04 04:30:59;;;;;;;19.60;17.50;;;14.10;85.70;;;;;;4999656;28;20069;-73
2021/08/04 04:33:25;;;;;;;20.20;17.95;;;14.10;85.60;;;;;;4998459;28;20034;-74
2021/08/04 04:35:52;;;;;;;21.10;18.15;;;14.10;85.60;;;;;;5012004;28;20044;-72
2021/08/04 04:38:17;;;;;;;23.13;19.55;;;14.10;85.50;;;;;;5015457;28;20546;-72
2021/08/04 04:40:43;;;;;;;22.35;19.98;;;14.10;85.60;;;;;;4999134;28;20045;-73
2021/08/04 04:43:09;;;;;;;20.80;18.60;;;14.10;85.70;;;;;;5000635;28;20034;-73
2021/08/04 04:45:34;;;;;;;23.73;18.85;;;14.10;86.00;;;;;;4999103;28;20030;-74
2021/08/04 04:48:00;;;;;;;24.52;19.25;;;14.10;86.10;;;;;;5006051;28;20092;-73
2021/08/04 04:50:26;;;;;;;21.40;19.10;;;14.10;86.20;;;;;;4998332;28;20044;-72
2021/08/04 04:52:51;;;;;;;21.38;18.83;;;14.20;85.80;;;;;;5001327;28;20038;-73
2021/08/04 04:55:17;;;;;;;22.40;19.02;;;14.20;85.80;;;;;;4997919;28;20046;-71
2021/08/04 04:57:43;;;;;;;22.63;18.30;;;14.40;85.50;;;;;;4996419;28;20480;-73
2021/08/04 05:00:09;;;;;;;21.50;18.70;;;14.60;85.20;;;;;;5008423;28;20038;-73
2021/08/04 05:02:39;;;;;;;22.15;18.58;;;14.60;84.70;;;;;;5017450;28;20033;-74
2021/08/04 05:05:05;;;;;;;22.00;18.77;;;14.60;84.20;;;;;;5024025;28;20083;-72
2021/08/04 05:07:31;;;;;;;22.05;18.80;;;14.70;84.30;;;;;;5023932;28;20044;-74
2021/08/04 05:09:57;;;;;;;22.80;19.70;;;14.70;84.40;;;;;;5025405;28;20128;-77
2021/08/04 05:12:22;;;;;;;20.15;17.95;;;14.70;84.10;;;;;;5023482;28;20045;-72
2021/08/04 05:14:48;;;;;;;26.08;23.17;;;14.90;84.30;;;;;;5019845;28;20034;-74
2021/08/04 05:17:14;;;;;;;25.02;21.58;;;15.00;83.80;;;;;;5029465;28;20048;-71
2021/08/04 05:19:40;;;;;;;25.55;22.80;;;15.00;83.10;;;;;;5030911;28;20552;-72
2021/08/04 05:22:06;;;;;;;26.73;23.48;;;15.10;83.40;;;;;;5025594;28;20056;-71
2021/08/04 05:24:32;;;;;;;26.88;23.13;;;15.10;83.20;;;;;;5033827;28;20492;-74
2021/08/04 05:26:57;;;;;;;28.27;25.27;;;15.20;83.00;;;;;;5033255;28;20036;-71
2021/08/04 05:29:23;;;;;;;27.88;24.90;;;15.20;81.90;;;;;;5030034;28;20075;-71
2021/08/04 05:31:49;;;;;;;26.92;24.02;;;15.20;81.80;;;;;;5023931;28;20045;-72
2021/08/04 05:34:16;;;;;;;28.48;25.40;;;15.40;81.70;;;;;;5026081;28;20042;-71
2021/08/04 05:36:42;;;;;;;29.90;24.25;;;15.50;81.10;;;;;;5023604;28;20026;-69
2021/08/04 05:39:08;;;;;;;27.35;24.48;;;15.60;81.00;;;;;;5022755;28;21100;-69
2021/08/04 05:41:34;;;;;;;28.33;25.40;;;15.80;80.40;;;;;;5021509;28;20049;-72
2021/08/04 05:44:00;;;;;;;30.50;26.48;;;15.70;80.20;;;;;;5021770;28;20045;-71
2021/08/04 05:46:26;;;;;;;28.85;25.75;;;15.60;80.40;;;;;;5025352;28;20074;-69
2021/08/04 05:48:51;;;;;;;28.80;24.90;;;15.60;81.10;;;;;;5036813;28;20041;-68
2021/08/04 05:51:17;;;;;;;28.27;25.27;;;15.60;81.20;;;;;;5036593;28;20037;-68
2021/08/04 05:53:43;;;;;;;28.50;24.90;;;15.70;80.80;;;;;;5029736;28;20057;-68
2021/08/04 05:56:09;;;;;;;30.77;27.30;;;15.70;80.90;;;;;;5032047;28;20033;-70
2021/08/04 05:58:35;;;;;;;29.23;26.23;;;15.70;80.80;;;;;;5023184;28;20048;-67
2021/08/04 06:01:01;;;;;;;32.05;28.45;;;15.70;80.90;;;;;;5024211;28;20499;-70
2021/08/04 06:03:26;;;;;;;32.47;26.38;;;15.80;80.90;;;;;;5028782;28;20037;-68
2021/08/04 06:05:52;;;;;;;30.60;27.27;;;15.90;80.50;;;;;;5026601;28;20477;-67
2021/08/04 06:08:18;;;;;;;30.15;26.95;;;16.00;80.50;;;;;;5027309;28;20438;-72
2021/08/04 06:10:43;;;;;;;32.95;29.25;;;16.10;80.50;;;;;;5019532;28;20044;-68
2021/08/04 06:13:09;;;;;;;32.35;28.42;;;16.10;80.10;;;;;;5030731;28;20088;-68
2021/08/04 06:15:35;;;;;;;31.65;27.73;;;16.20;79.80;;;;;;5022952;28;20041;-73
2021/08/04 06:18:00;;;;;;;31.75;27.92;;;16.40;80.00;;;;;;5022034;28;20038;-70
2021/08/04 06:20:26;;;;;;;31.13;26.88;;;16.60;78.70;;;;;;5022192;28;20038;-71
2021/08/04 06:22:52;;;;;;;29.95;26.35;;;16.70;78.60;;;;;;5034809;28;20481;-74
2021/08/04 06:25:17;;;;;;;29.90;26.70;;;17.00;78.80;;;;;;5022346;28;20401;-70
2021/08/04 06:27:44;;;;;;;31.58;28.15;;;17.20;77.60;;;;;;5030991;28;20540;-69
2021/08/04 06:30:10;;;;;;;33.97;27.48;;;17.20;77.10;;;;;;5028613;28;20057;-68
2021/08/04 06:32:36;;;;;;;29.42;25.13;;;17.40;76.30;;;;;;5027013;28;20060;-68
2021/08/04 06:35:02;;;;;;;32.67;26.10;;;17.60;76.70;;;;;;5017955;28;20470;-71
2021/08/04 06:37:27;;;;;;;30.67;26.25;;;17.70;75.50;;;;;;5026100;28;20034;-70
2021/08/04 06:39:53;;;;;;;28.88;25.83;;;17.80;74.90;;;;;;5028307;28;20034;-71
2021/08/04 06:42:19;;;;;;;29.05;25.85;;;18.00;74.20;;;;;;5027757;28;20051;-69
2021/08/04 06:44:45;;;;;;;29.65;26.48;;;18.10;74.50;;;;;;5036056;28;20464;-69
2021/08/04 06:47:10;;;;;;;30.58;26.65;;;18.30;73.00;;;;;;5029617;28;20043;-70
2021/08/04 06:49:36;;;;;;;28.70;24.75;;;18.40;73.80;;;;;;5035358;28;20040;-70
2021/08/04 06:52:02;;;;;;;29.63;24.75;;;18.60;72.70;;;;;;5017765;28;20045;-69
2021/08/04 06:54:28;;;;;;;26.92;24.02;;;18.60;70.90;;;;;;5012401;28;20046;-69
2021/08/04 06:56:53;;;;;;;26.33;23.50;;;18.40;70.90;;;;;;5007292;28;20401;-71
2021/08/04 06:59:19;;;;;;;26.10;23.15;;;18.40;70.30;;;;;;5003274;28;20042;-70
2021/08/04 07:01:45;;;;;;;26.70;22.38;;;18.70;69.90;;;;;;5015793;28;20050;-70
2021/08/04 07:04:12;;;;;;;28.15;24.13;;;18.90;69.70;;;;;;5004050;28;20042;-70
2021/08/04 07:06:37;;;;;;;28.77;23.17;;;18.80;68.40;;;;;;5007755;28;20073;-69
2021/08/04 07:09:03;;;;;;;26.60;20.67;;;18.80;68.80;;;;;;4993545;28;20481;-70
2021/08/04 07:11:29;;;;;;;25.52;21.60;;;18.80;67.10;;;;;;5003773;28;20200;-69
2021/08/04 07:13:56;;;;;;;24.15;20.95;;;18.80;66.90;;;;;;5008070;28;20057;-74
2021/08/04 07:16:22;;;;;;;23.80;21.25;;;18.80;67.30;;;;;;5019541;28;20450;-69
2021/08/04 07:18:47;;;;;;;27.80;22.88;;;18.70;68.60;;;;;;5016107;28;20052;-71
2021/08/04 07:21:13;;;;;;;26.42;21.80;;;18.90;68.80;;;;;;5018692;28;20042;-69
2021/08/04 07:23:40;;;;;;;29.08;25.08;;;19.10;68.40;;;;;;5023239;28;20080;-71
2021/08/04 07:26:06;;;;;;;25.45;22.67;;;19.20;68.60;;;;;;5018899;28;20040;-69
2021/08/04 07:28:32;;;;;;;26.27;23.52;;;19.30;68.50;;;;;;5026506;28;20419;-69
2021/08/04 07:30:58;;;;;;;24.52;21.85;;;19.50;69.00;;;;;;5022134;28;20120;-73
2021/08/04 07:33:24;;;;;;;25.83;21.42;;;19.70;67.30;;;;;;5023270;28;20112;-70
2021/08/04 07:35:49;;;;;;;26.38;22.15;;;20.00;65.50;;;;;;5016516;28;20488;-70
2021/08/04 07:38:15;;;;;;;24.48;21.52;;;20.30;65.20;;;;;;5020399;28;20666;-70
2021/08/04 07:40:42;;;;;;;23.75;21.10;;;20.60;64.50;;;;;;5021369;28;20112;-71
2021/08/04 07:43:08;;;;;;;23.25;20.77;;;20.80;62.80;;;;;;5015476;28;20041;-69
2021/08/04 07:45:34;;;;;;;26.42;21.10;;;21.10;63.20;;;;;;5024094;28;20472;-69
2021/08/04 07:47:59;;;;;;;23.38;20.55;;;21.30;63.40;;;;;;5023459;28;20382;-70
2021/08/04 07:50:25;;;;;;;27.05;19.45;;;21.20;61.70;;;;;;5023321;28;20107;-71
2021/08/04 07:52:51;;;;;;;25.10;22.40;;;21.40;61.00;;;;;;5020332;28;20440;-70
2021/08/04 07:55:17;;;;;;;23.30;20.88;;;21.30;60.30;;;;;;5009050;28;20037;-69
2021/08/04 07:57:43;;;;;;;23.20;20.27;;;21.40;59.80;;;;;;5012511;28;20057;-69
2021/08/04 08:00:09;;;;;;;22.30;19.05;;;21.50;60.20;;;;;;5021264;28;20040;-71
2021/08/04 08:02:35;;;;;;;20.13;17.83;;;21.70;58.30;;;;;;5029283;28;20037;-69
2021/08/04 08:05:01;;;;;;;23.35;20.13;;;21.60;59.20;;;;;;5026194;28;20546;-70
2021/08/04 08:07:26;;;;;;;21.75;19.45;;;21.80;57.90;;;;;;5006395;28;20038;-69
2021/08/04 08:09:52;;;;;;;21.35;18.23;;;21.40;57.90;;;;;;5003314;28;20193;-69
2021/08/04 08:12:18;;;;;;;21.58;18.30;;;21.70;58.30;;;;;;5001573;28;20037;-70
2021/08/04 08:14:44;;;;;;;18.67;16.50;;;22.00;57.70;;;;;;5004664;28;20550;-70
2021/08/04 08:17:09;;;;;;;22.08;18.90;;;21.90;56.20;;;;;;5011981;28;20068;-69
2021/08/04 08:19:35;;;;;;;20.58;17.92;;;22.10;58.40;;;;;;5011047;28;20529;-71
2021/08/04 08:22:01;;;;;;;23.73;18.17;;;22.10;55.60;;;;;;5006727;28;20050;-70
2021/08/04 08:24:27;;;;;;;22.25;18.02;;;21.80;58.00;;;;;;4998621;28;20056;-69
2021/08/04 08:26:53;;;;;;;20.30;16.73;;;21.80;57.40;;;;;;5012395;28;20033;-69
2021/08/04 08:29:19;;;;;;;18.25;14.88;;;21.90;56.00;;;;;;5001238;28;20042;-70
2021/08/04 08:31:45;;;;;;;20.63;16.23;;;22.10;57.30;;;;;;4997248;28;20038;-69
2021/08/04 08:34:10;;;;;;;19.80;14.98;;;22.10;56.70;;;;;;4997623;28;20571;-70
2021/08/04 08:36:37;;;;;;;17.17;14.85;;;21.80;55.80;;;;;;4996443;28;20550;-69
2021/08/04 08:39:05;;;;;;;19.27;15.63;;;21.80;56.40;;;;;;4999864;28;20046;-70
2021/08/04 08:41:31;;;;;;;17.55;14.73;;;21.80;57.70;;;;;;5012911;28;20038;-76
2021/08/04 08:43:57;;;;;;;19.92;16.85;;;21.80;57.20;;;;;;4997435;28;20038;-69
2021/08/04 08:46:27;;;;;;;21.75;14.45;;;22.20;57.30;;;;;;4997992;28;20035;-70
2021/08/04 08:48:53;;;;;;;16.80;13.75;;;22.50;56.00;;;;;;4998117;28;20501;-74
2021/08/04 08:51:20;;;;;;;17.65;14.32;;;22.60;55.30;;;;;;5001129;28;20069;-72
2021/08/04 08:53:46;;;;;;;20.25;17.23;;;22.90;55.30;;;;;;4999856;28;20045;-70
2021/08/04 08:56:15;;;;;;;21.90;15.77;;;23.20;53.70;;;;;;5022307;28;20037;-69
2021/08/04 08:58:41;;;;;;;18.92;14.63;;;22.80;54.70;;;;;;5026360;28;20036;-69
2021/08/04 09:01:07;;;;;;;16.98;13.82;;;22.80;54.80;;;;;;5019451;28;20065;-69
2021/08/04 09:03:33;;;;;;;20.17;15.68;;;23.00;54.40;;;;;;5024583;28;20120;-69
2021/08/04 09:05:59;;;;;;;19.50;16.45;;;23.30;53.90;;;;;;5023902;28;20108;-74
2021/08/04 09:08:26;;;;;;;17.95;16.00;;;23.60;52.10;;;;;;5022904;28;20936;-76
2021/08/04 09:10:53;;;;;;;15.50;13.55;;;23.80;51.20;;;;;;5025116;28;20041;-69
2021/08/04 09:13:30;;;;;;;16.20;14.15;;;23.60;51.40;;;;;;5024104;28;20045;-69
2021/08/04 09:16:04;;;;;;;20.15;14.88;;;23.40;52.10;;;;;;5021924;28;20053;-69
2021/08/04 09:18:48;;;;;;;16.13;13.43;;;23.40;51.00;;;;;;5017470;28;20034;-68
2021/08/04 09:21:16;;;;;;;16.10;13.10;;;23.70;51.90;;;;;;5027338;28;20029;-69
2021/08/04 09:23:48;;;;;;;17.00;13.57;;;24.00;51.60;;;;;;5021925;28;20575;-70
2021/08/04 09:26:24;;;;;;;18.10;15.15;;;23.70;51.90;;;;;;5027278;28;20067;-74
2021/08/04 09:29:09;;;;;;;23.83;20.30;;;24.00;51.60;;;;;;5029174;28;20041;-70
2021/08/04 09:31:40;;;;;;;23.15;20.70;;;23.60;50.70;;;;;;5024223;28;20607;-69
2021/08/04 09:34:30;;;;;;;23.48;19.38;;;23.10;52.10;;;;;;5018209;28;20072;-69
2021/08/04 09:37:16;;;;;;;24.17;16.40;;;22.80;52.60;;;;;;5026720;28;20029;-69
2021/08/04 09:39:54;;;;;;;21.90;16.65;;;23.10;52.40;;;;;;5022909;28;20120;-73
2021/08/04 09:42:21;;;;;;;22.10;17.95;;;23.60;52.70;;;;;;5010884;28;20048;-73
2021/08/04 09:44:58;;;;;;;20.58;16.00;;;23.50;50.70;;;;;;5018904;28;20057;-69
2021/08/04 09:47:25;;;;;;;16.65;13.43;;;23.30;53.60;;;;;;5023708;28;20098;-69
2021/08/04 09:49:54;;;;;;;17.65;10.88;;;23.80;51.00;;;;;;5022202;28;20037;-68
2021/08/04 09:52:20;;;;;;;13.43;10.45;;;24.10;50.50;;;;;;5027508;28;21776;-68
2021/08/04 09:54:46;;;;;;;16.00;10.98;;;24.40;48.00;;;;;;5022473;28;20045;-69
2021/08/04 09:57:12;;;;;;;14.20;11.10;;;24.60;48.30;;;;;;5020730;28;20033;-68
2021/08/04 09:59:38;;;;;;;17.60;11.35;;;24.60;47.00;;;;;;5014745;28;20046;-69
2021/08/04 10:02:05;;;;;;;16.30;12.73;;;25.00;48.60;;;;;;5023751;28;20030;-69
2021/08/04 10:04:32;;;;;;;15.02;11.43;;;24.60;48.20;;;;;;5020242;28;20026;-71
2021/08/04 10:07:09;;;;;;;19.35;12.35;;;24.30;48.20;;;;;;5025417;28;20049;-72
2021/08/04 10:09:36;;;;;;;19.00;12.80;;;24.50;46.30;;;;;;5028446;28;20115;-73
2021/08/04 10:12:04;;;;;;;16.88;12.55;;;24.30;46.40;;;;;;5030096;28;20040;-74
2021/08/04 10:14:30;;;;;;;16.98;12.25;;;24.40;45.80;;;;;;5029524;28;20104;-71
2021/08/04 10:16:56;;;;;;;15.45;11.32;;;24.10;47.80;;;;;;5032028;28;20476;-69
2021/08/04 10:19:24;;;;;;;16.95;10.40;;;24.70;48.90;;;;;;5029908;28;20578;-69
2021/08/04 10:21:52;;;;;;;16.00;11.32;;;25.10;46.30;;;;;;5022166;28;20107;-70
2021/08/04 10:24:18;;;;;;;14.50;10.38;;;25.40;44.80;;;;;;5027246;28;20401;-69
2021/08/04 10:26:44;;;;;;;15.63;11.30;;;25.80;45.90;;;;;;5029530;28;20074;-71
2021/08/04 10:29:11;;;;;;;14.60;10.68;;;25.70;44.70;;;;;;5027197;28;20544;-73
2021/08/04 10:31:39;;;;;;;14.43;11.38;;;25.50;45.70;;;;;;5035690;28;20041;-70
2021/08/04 10:34:07;;;;;;;15.15;11.65;;;25.10;45.90;;;;;;5016501;28;20046;-69
2021/08/04 10:36:36;;;;;;;13.32;10.70;;;24.70;47.50;;;;;;5003137;28;20042;-71
2021/08/04 10:39:13;;;;;;;14.98;12.10;;;24.60;47.90;;;;;;5020294;28;20140;-68
2021/08/04 10:41:57;;;;;;;17.70;13.07;;;24.30;48.00;;;;;;5032673;28;20075;-69
2021/08/04 10:44:23;;;;;;;;;;;24.40;48.90;;;;;;5016633;28;20041;-69
2021/08/04 10:46:49;;;;;;;15.93;12.20;;;24.20;48.50;;;;;;5012150;28;19913;-72
2021/08/04 10:49:24;;;;;;;14.75;10.15;;;24.20;48.90;;;;;;5017197;28;20521;-70
2021/08/04 10:51:58;;;;;;;16.33;11.75;;;24.30;49.40;;;;;;5024838;28;20097;-70
2021/08/04 10:54:25;;;;;;;14.40;11.05;;;24.50;48.50;;;;;;5020708;28;20056;-70
2021/08/04 10:56:50;;;;;;;18.77;11.98;;;24.50;48.90;;;;;;5018465;28;20033;-72
2021/08/04 10:59:29;;;;;;;17.33;12.45;;;24.80;48.20;;;;;;5020767;28;20690;-72
2021/08/04 11:02:14;;;;;;;14.55;11.20;;;24.80;46.90;;;;;;5021724;28;20038;-70
2021/08/04 11:04:43;;;;;;;14.77;11.50;;;23.90;49.00;;;;;;5036992;28;20084;-69
2021/08/04 11:07:09;;;;;;;15.57;11.60;;;24.00;47.80;;;;;;5024261;28;20041;-70
2021/08/04 11:09:35;;;;;;;16.48;12.68;;;24.50;47.30;;;;;;5017373;28;20092;-70
2021/08/04 11:12:04;;;;;;;15.48;13.13;;;24.90;46.00;;;;;;5023186;28;20073;-75
2021/08/04 11:14:49;;;;;;;12.88;9.65;;;24.70;48.20;;;;;;5026298;28;20370;-74
2021/08/04 11:17:17;;;;;;;10.02;7.90;;;25.30;45.30;;;;;;5020468;28;20034;-69
2021/08/04 11:22:46;;;;;;;13.77;9.63;;;25.80;46.40;;;;;;5023104;28;20779;-69
2021/08/04 11:25:26;;;;;;;13.25;10.95;;;25.60;45.10;;;;;;5021973;28;20077;-70
2021/08/04 11:27:52;;;;;;;13.93;12.13;;;25.20;46.50;;;;;;5022237;28;20038;-71
2021/08/04 11:30:28;;;;;;;14.35;10.95;;;25.00;47.40;;;;;;5016019;28;20098;-70
2021/08/04 11:33:18;;;;;;;14.27;10.70;;;24.80;46.40;;;;;;5024272;28;20056;-70
2021/08/04 11:36:19;;;;;;;11.45;10.23;;;24.80;47.10;;;;;;5024607;28;20085;-69
2021/08/04 11:38:49;;;;;;;13.30;10.82;;;25.30;47.80;;;;;;5033259;28;20026;-70
2021/08/04 11:41:32;;;;;;;15.43;10.68;;;25.60;45.90;;;;;;5024832;28;20053;-73
2021/08/04 11:44:12;;;;;;;14.25;9.43;;;25.60;46.00;;;;;;5026816;28;20043;-70
2021/08/04 11:46:44;;;;;;;13.23;9.43;;;25.80;46.30;;;;;;5024515;28;20079;-74
2021/08/04 11:49:20;;;;;;;12.73;10.10;;;25.90;45.70;;;;;;5022806;28;20458;-70
2021/08/04 11:51:57;;;;;;;13.70;10.30;;;26.00;45.40;;;;;;5018066;28;20042;-70
2021/08/04 11:54:38;;;;;;;10.60;8.60;;;26.30;44.40;;;;;;5026689;28;20400;-69
2021/08/04 11:57:06;;;;;;;11.27;8.98;;;26.40;45.30;;;;;;5020943;28;20030;-70
2021/08/04 11:59:50;;;;;;;13.95;10.13;;;26.40;42.90;;;;;;5023229;28;20103;-70
2021/08/04 12:02:17;;;;;;;11.20;7.55;;;26.50;40.80;;;;;;5019226;28;20041;-69
2021/08/04 12:04:48;;;;;;;13.43;9.10;;;26.40;42.50;;;;;;5017563;28;20095;-69
2021/08/04 12:07:14;;;;;;;10.80;8.23;;;26.40;42.80;;;;;;5024322;28;20037;-69
2021/08/04 12:09:41;;;;;;;11.30;8.18;;;26.10;42.50;;;;;;5020777;28;20038;-69
2021/08/04 12:12:12;;;;;;;11.23;8.27;;;26.10;43.30;;;;;;5018556;28;20034;-70
2021/08/04 12:14:38;;;;;;;12.07;9.32;;;26.00;43.20;;;;;;5016282;28;20112;-69
2021/08/04 12:17:04;;;;;;;10.25;7.50;;;25.60;43.80;;;;;;5019447;28;20540;-70
2021/08/04 12:19:34;;;;;;;11.27;8.20;;;25.60;45.40;;;;;;5022691;28;20037;-71
2021/08/04 12:22:01;;;;;;;11.07;8.52;;;26.20;45.40;;;;;;5015827;28;20041;-69
2021/08/04 12:24:27;;;;;;;13.50;10.23;;;26.10;44.90;;;;;;5018344;28;20073;-70
2021/08/04 12:26:53;;;;;;;13.57;10.45;;;25.70;45.70;;;;;;5018061;28;20121;-72
2021/08/04 12:29:23;;;;;;;12.77;9.55;;;25.10;46.40;;;;;;5017642;28;20121;-69
2021/08/04 12:32:10;;;;;;;14.77;9.77;;;24.70;47.50;;;;;;5019416;28;20076;-69
2021/08/04 12:34:52;;;;;;;13.55;10.57;;;24.30;48.20;;;;;;5016692;28;20504;-69
2021/08/04 12:37:20;;;;;;;14.18;11.30;;;24.10;50.00;;;;;;5016362;28;20029;-69